createdAt,value
2022-09-14T00:01:14.236Z,74.70
2022-09-14T00:03:41.206Z,74.59
2022-09-14T00:06:11.114Z,75.08
2022-09-14T00:08:39.243Z,75.07
2022-09-14T00:11:09.213Z,75.18
2022-09-14T00:13:36.662Z,74.79
2022-09-14T00:16:12.312Z,75.17
2022-09-14T00:18:39.541Z,75.00
2022-09-14T00:21:08.245Z,75.08
2022-09-14T00:23:37.605Z,74.93
2022-09-14T00:26:13.794Z,75.36
2022-09-14T00:28:45.899Z,75.42
2022-09-14T00:31:13.859Z,75.32
2022-09-14T00:33:42.422Z,75.29
2022-09-14T00:36:12.023Z,75.66
2022-09-14T00:38:40.295Z,75.40
2022-09-14T00:41:10.561Z,75.37
2022-09-14T00:43:59.239Z,75.41
2022-09-14T00:46:28.358Z,75.58
2022-09-14T00:48:56.881Z,75.50
2022-09-14T00:51:24.455Z,74.92
2022-09-14T00:53:51.652Z,74.64
2022-09-14T00:56:19.041Z,75.19
2022-09-14T00:58:48.430Z,75.25
2022-09-14T01:01:15.611Z,75.51
2022-09-14T01:03:42.705Z,75.65
2022-09-14T01:06:21.803Z,75.79
2022-09-14T01:09:19.553Z,75.71
2022-09-14T01:12:07.401Z,75.97
2022-09-14T01:15:01.074Z,76.04
2022-09-14T01:17:34.343Z,75.71
2022-09-14T01:20:27.928Z,76.03
2022-09-14T01:23:36.498Z,76.12
2022-09-14T01:26:26.944Z,76.03
2022-09-14T01:29:09.058Z,75.02
2022-09-14T01:31:53.276Z,75.25
2022-09-14T01:34:31.665Z,75.30
2022-09-14T01:37:12.805Z,75.79
2022-09-14T01:39:46.211Z,76.06
2022-09-14T01:42:14.767Z,75.53
2022-09-14T01:44:44.675Z,76.13
2022-09-14T01:47:26.457Z,76.32
2022-09-14T01:49:59.269Z,76.49
2022-09-14T01:52:36.289Z,76.45
2022-09-14T01:55:07.906Z,76.66
2022-09-14T01:57:43.149Z,76.73
2022-09-14T02:00:16.486Z,76.53
2022-09-14T02:02:49.492Z,76.35
2022-09-14T02:05:19.574Z,76.23
2022-09-14T02:07:46.652Z,75.92
2022-09-14T02:10:15.462Z,76.18
2022-09-14T02:12:43.034Z,75.65
2022-09-14T02:15:11.323Z,75.60
2022-09-14T02:17:38.865Z,75.52
2022-09-14T02:20:08.372Z,75.75
2022-09-14T02:22:35.582Z,75.53
2022-09-14T02:25:03.265Z,75.64
2022-09-14T02:27:30.299Z,75.94
2022-09-14T02:29:57.413Z,75.57
2022-09-14T02:32:35.962Z,76.17
2022-09-14T02:35:32.614Z,76.57
2022-09-14T02:38:14.244Z,76.39
2022-09-14T02:40:46.832Z,75.86
2022-09-14T02:43:23.007Z,75.41
2022-09-14T02:46:11.780Z,75.23
2022-09-14T02:48:52.436Z,76.43
2022-09-14T02:51:38.694Z,75.73
2022-09-14T02:54:11.870Z,76.35
2022-09-14T02:56:38.873Z,76.28
2022-09-14T02:59:06.186Z,76.46
2022-09-14T03:01:33.419Z,76.18
2022-09-14T03:04:00.475Z,76.03
2022-09-14T03:06:27.472Z,76.71
2022-09-14T03:08:54.444Z,76.98
2022-09-14T03:11:21.386Z,76.82
2022-09-14T03:13:48.393Z,77.87
2022-09-14T03:16:17.248Z,77.62
2022-09-14T03:18:44.517Z,77.66
2022-09-14T03:21:16.360Z,78.86
2022-09-14T03:23:47.864Z,78.62
2022-09-14T03:26:20.052Z,79.22
2022-09-14T03:28:54.187Z,79.11
2022-09-14T03:31:21.651Z,79.42
2022-09-14T03:33:54.086Z,79.53
2022-09-14T03:36:21.311Z,79.36
2022-09-14T03:38:51.448Z,79.65
2022-09-14T03:41:19.122Z,80.32
2022-09-14T03:43:46.317Z,80.64
2022-09-14T03:46:17.562Z,80.97
2022-09-14T03:48:44.864Z,80.85
2022-09-14T03:51:12.978Z,80.78
2022-09-14T03:53:40.749Z,80.40
2022-09-14T03:56:09.263Z,80.43
2022-09-14T03:58:36.654Z,80.34
2022-09-14T04:01:08.151Z,80.24
2022-09-14T04:03:35.502Z,80.59
2022-09-14T04:06:05.405Z,81.17
2022-09-14T04:08:34.595Z,81.04
2022-09-14T04:11:18.114Z,81.03
2022-09-14T04:13:45.779Z,81.22
2022-09-14T04:16:13.463Z,81.63
2022-09-14T04:18:40.565Z,81.71
2022-09-14T04:21:10.139Z,81.64
2022-09-14T04:23:56.585Z,81.36
2022-09-14T04:26:28.047Z,81.42
2022-09-14T04:28:55.585Z,81.52
2022-09-14T04:31:22.994Z,81.63
2022-09-14T04:33:51.253Z,81.82
2022-09-14T04:36:20.187Z,81.90
2022-09-14T04:38:47.182Z,82.17
2022-09-14T04:41:16.584Z,81.48
2022-09-14T04:43:45.181Z,81.48
2022-09-14T04:46:14.851Z,81.56
2022-09-14T04:48:42.220Z,81.99
2022-09-14T04:51:10.613Z,81.86
2022-09-14T04:53:38.817Z,81.84
2022-09-14T04:56:08.148Z,81.98
2022-09-14T04:58:40.974Z,81.58
2022-09-14T05:01:10.634Z,81.38
2022-09-14T05:03:39.071Z,80.30
2022-09-14T05:06:07.903Z,80.35
2022-09-14T05:08:36.524Z,80.67
2022-09-14T05:11:03.603Z,81.17
2022-09-14T05:13:31.018Z,81.45
2022-09-14T05:16:09.012Z,81.94
2022-09-14T05:18:36.540Z,82.05
2022-09-14T05:21:08.373Z,81.99
2022-09-14T05:23:35.994Z,81.58
2022-09-14T05:26:03.999Z,81.60
2022-09-14T05:28:31.502Z,82.01
2022-09-14T05:30:58.639Z,82.19
2022-09-14T05:33:25.909Z,82.16
2022-09-14T05:35:52.893Z,81.68
2022-09-14T05:38:19.843Z,81.72
2022-09-14T05:40:47.272Z,81.91
2022-09-14T05:43:14.256Z,81.81
2022-09-14T05:45:41.468Z,80.94
2022-09-14T05:48:08.468Z,80.55
2022-09-14T05:50:35.443Z,80.84
2022-09-14T05:53:02.442Z,81.54
2022-09-14T05:55:29.429Z,81.99
2022-09-14T05:57:57.072Z,80.97
2022-09-14T06:00:24.214Z,80.43
2022-09-14T06:02:52.936Z,80.64
2022-09-14T06:05:20.860Z,80.92
2022-09-14T06:07:52.553Z,81.41
2022-09-14T06:10:23.266Z,82.08
2022-09-14T06:12:53.534Z,82.53
2022-09-14T06:15:24.574Z,82.90
2022-09-14T06:17:51.586Z,83.24
2022-09-14T06:20:18.943Z,83.54
2022-09-14T06:22:45.959Z,83.40
2022-09-14T06:25:13.021Z,82.92
2022-09-14T06:27:40.021Z,82.84
2022-09-14T06:30:07.635Z,82.93
2022-09-14T06:32:34.848Z,82.99
2022-09-14T06:35:03.590Z,83.73
2022-09-14T06:37:30.895Z,83.91
2022-09-14T06:39:58.172Z,83.83
2022-09-14T06:42:25.177Z,84.42
2022-09-14T06:44:52.166Z,84.57
2022-09-14T06:47:42.531Z,84.39
2022-09-14T06:50:09.895Z,84.24
2022-09-14T06:52:37.362Z,83.83
2022-09-14T06:55:24.958Z,83.27
2022-09-14T06:57:52.143Z,84.03
2022-09-14T07:00:19.263Z,83.56
2022-09-14T07:02:47.298Z,83.78
2022-09-14T07:05:20.325Z,84.32
2022-09-14T07:07:51.206Z,84.12
2022-09-14T07:10:18.288Z,83.84
2022-09-14T07:12:45.382Z,84.09
2022-09-14T07:15:12.422Z,84.33
2022-09-14T07:17:39.481Z,84.41
2022-09-14T07:20:08.088Z,84.16
2022-09-14T07:22:35.484Z,85.12
2022-09-14T07:25:02.593Z,85.01
2022-09-14T07:27:29.687Z,85.17
2022-09-14T07:29:56.723Z,85.16
2022-09-14T07:32:23.846Z,85.07
2022-09-14T07:34:51.115Z,85.20
2022-09-14T07:37:18.177Z,85.04
2022-09-14T07:39:45.237Z,85.08
2022-09-14T07:42:12.406Z,84.26
2022-09-14T07:44:39.719Z,84.59
2022-09-14T07:47:07.040Z,84.70
2022-09-14T07:49:34.186Z,84.36
2022-09-14T07:52:01.283Z,85.28
2022-09-14T07:54:28.519Z,85.38
2022-09-14T07:56:55.803Z,85.11
2022-09-14T07:59:35.655Z,85.52
2022-09-14T08:02:06.169Z,85.36
2022-09-14T08:04:35.762Z,85.60
2022-09-14T08:07:03.145Z,85.83
2022-09-14T08:09:30.291Z,85.97
2022-09-14T08:11:57.931Z,85.84
2022-09-14T08:14:25.367Z,86.27
2022-09-14T08:16:55.054Z,86.47
2022-09-14T08:19:22.128Z,86.74
2022-09-14T08:21:49.247Z,87.34
2022-09-14T08:24:19.376Z,87.51
2022-09-14T08:26:47.507Z,87.25
2022-09-14T08:29:16.059Z,87.08
2022-09-14T08:31:45.405Z,86.71
2022-09-14T08:34:13.682Z,87.09
2022-09-14T08:36:41.544Z,87.62
2022-09-14T08:39:10.469Z,87.41
2022-09-14T08:41:43.682Z,87.19
2022-09-14T08:44:30.263Z,86.67
2022-09-14T08:47:01.816Z,87.07
2022-09-14T08:49:43.232Z,87.11
2022-09-14T08:52:23.865Z,87.50
2022-09-14T08:54:54.139Z,87.50
2022-09-14T08:57:40.544Z,88.42
2022-09-14T09:00:13.850Z,88.00
2022-09-14T09:03:05.320Z,88.09
2022-09-14T09:05:52.703Z,88.39
2022-09-14T09:08:39.518Z,88.42
2022-09-14T09:11:12.891Z,88.49
2022-09-14T09:13:40.221Z,88.06
2022-09-14T09:16:09.400Z,88.19
2022-09-14T09:18:40.943Z,87.65
2022-09-14T09:21:42.056Z,88.13
2022-09-14T09:24:20.809Z,88.58
2022-09-14T09:26:47.901Z,88.61
2022-09-14T09:29:14.976Z,88.79
2022-09-14T09:31:47.495Z,88.90
2022-09-14T09:34:16.730Z,88.38
2022-09-14T09:36:47.975Z,88.63
2022-09-14T09:39:15.847Z,88.43
2022-09-14T09:41:50.333Z,89.00
2022-09-14T09:44:17.509Z,88.91
2022-09-14T09:46:59.551Z,89.43
2022-09-14T09:49:31.758Z,89.32
2022-09-14T09:52:14.634Z,89.17
2022-09-14T09:54:43.376Z,88.60
2022-09-14T09:57:24.124Z,88.92
2022-09-14T09:59:51.242Z,87.90
2022-09-14T10:02:32.259Z,88.29
2022-09-14T10:05:12.048Z,88.55
2022-09-14T10:07:57.915Z,88.14
2022-09-14T10:10:34.042Z,88.66
2022-09-14T10:13:02.079Z,88.36
2022-09-14T10:15:36.610Z,88.33
2022-09-14T10:18:13.098Z,88.57
2022-09-14T10:20:48.699Z,88.25
2022-09-14T10:23:23.816Z,88.71
2022-09-14T10:25:53.856Z,88.01
2022-09-14T10:28:28.038Z,88.40
2022-09-14T10:31:15.305Z,88.41
2022-09-14T10:33:42.787Z,88.10
2022-09-14T10:36:30.763Z,88.93
2022-09-14T10:39:26.171Z,88.64
2022-09-14T10:42:00.409Z,88.78
2022-09-14T10:44:37.727Z,88.60
2022-09-14T10:47:37.621Z,88.63
2022-09-14T10:50:13.468Z,88.76
2022-09-14T10:53:04.659Z,88.90
2022-09-14T10:56:03.722Z,88.12
2022-09-14T10:59:16.465Z,88.87
2022-09-14T11:01:53.054Z,89.05
2022-09-14T11:04:33.288Z,89.29
2022-09-14T11:07:26.661Z,89.60
2022-09-14T11:10:16.173Z,89.72
2022-09-14T11:12:57.719Z,89.77
2022-09-14T11:15:46.185Z,89.16
2022-09-14T11:18:21.555Z,89.30
2022-09-14T11:21:06.147Z,89.79
2022-09-14T11:23:54.848Z,90.02
2022-09-14T11:26:31.591Z,89.96
2022-09-14T11:29:19.168Z,89.38
2022-09-14T11:32:19.355Z,89.67
2022-09-14T11:34:47.561Z,90.20
2022-09-14T11:37:17.083Z,90.45
2022-09-14T11:39:48.016Z,89.82
2022-09-14T11:42:24.846Z,89.85
2022-09-14T11:44:59.469Z,90.25
2022-09-14T11:47:26.626Z,90.15
2022-09-14T11:50:08.062Z,90.39
2022-09-14T11:52:35.260Z,90.68
2022-09-14T11:55:03.589Z,90.97
2022-09-14T11:57:32.197Z,91.29
2022-09-14T12:00:01.386Z,90.94
2022-09-14T12:02:28.329Z,90.85
2022-09-14T12:05:07.345Z,90.98
2022-09-14T12:07:46.394Z,90.84
2022-09-14T12:10:19.262Z,90.41
2022-09-14T12:13:04.375Z,90.23
2022-09-14T12:15:34.402Z,90.09
2022-09-14T12:18:07.709Z,90.43
2022-09-14T12:20:37.504Z,90.86
2022-09-14T12:23:05.680Z,90.83
2022-09-14T12:25:34.072Z,90.29
2022-09-14T12:28:01.300Z,90.11
2022-09-14T12:30:54.420Z,90.30
2022-09-14T12:33:31.084Z,90.31
2022-09-14T12:36:16.836Z,90.41
2022-09-14T12:38:49.599Z,90.33
2022-09-14T12:41:19.664Z,90.13
2022-09-14T12:43:49.489Z,90.04
2022-09-14T12:46:19.704Z,89.33
2022-09-14T12:48:50.676Z,89.35
2022-09-14T12:51:26.819Z,90.23
2022-09-14T12:54:09.168Z,90.34
2022-09-14T12:56:46.901Z,89.49
2022-09-14T12:59:39.105Z,89.43
2022-09-14T13:02:47.492Z,89.64
2022-09-14T13:05:18.075Z,89.93
2022-09-14T13:07:45.551Z,88.91
2022-09-14T13:10:30.958Z,89.27
2022-09-14T13:12:59.253Z,88.88
2022-09-14T13:15:30.201Z,89.72
2022-09-14T13:18:28.257Z,89.40
2022-09-14T13:20:57.805Z,89.88
2022-09-14T13:23:36.688Z,89.77
2022-09-14T13:26:12.028Z,89.92
2022-09-14T13:28:43.114Z,89.75
2022-09-14T13:31:14.759Z,89.70
2022-09-14T13:33:48.037Z,89.72
2022-09-14T13:36:18.361Z,89.72
2022-09-14T13:38:45.878Z,89.48
2022-09-14T13:41:15.759Z,88.93
2022-09-14T13:43:44.857Z,88.77
2022-09-14T13:46:12.035Z,89.21
2022-09-14T13:48:41.315Z,89.63
2022-09-14T13:51:10.338Z,89.41
2022-09-14T13:53:48.865Z,89.59
2022-09-14T13:56:30.950Z,89.67
2022-09-14T13:59:07.256Z,89.58
2022-09-14T14:01:40.536Z,89.28
2022-09-14T14:04:24.169Z,89.43
2022-09-14T14:07:06.730Z,88.88
2022-09-14T14:09:54.235Z,88.87
2022-09-14T14:12:34.532Z,88.35
2022-09-14T14:15:27.535Z,88.81
2022-09-14T14:17:54.989Z,88.10
2022-09-14T14:20:34.307Z,88.30
2022-09-14T14:23:10.578Z,88.86
2022-09-14T14:25:54.089Z,89.28
2022-09-14T14:28:28.204Z,89.50
2022-09-14T14:30:56.888Z,89.83
2022-09-14T14:33:24.061Z,89.54
2022-09-14T14:35:53.886Z,89.67
2022-09-14T14:38:23.369Z,89.85
2022-09-14T14:40:54.052Z,90.53
2022-09-14T14:43:25.257Z,90.51
2022-09-14T14:46:02.006Z,90.37
2022-09-14T14:48:29.473Z,90.48
2022-09-14T14:50:56.807Z,90.36
2022-09-14T14:53:24.762Z,90.72
2022-09-14T14:55:51.907Z,90.50
2022-09-14T14:58:20.326Z,90.73
2022-09-14T15:00:47.864Z,90.53
2022-09-14T15:03:15.683Z,90.50
2022-09-14T15:05:43.703Z,90.71
2022-09-14T15:08:12.179Z,90.29
2022-09-14T15:10:40.354Z,90.71
2022-09-14T15:13:08.508Z,90.59
2022-09-14T15:15:35.558Z,90.46
2022-09-14T15:18:02.662Z,90.50
2022-09-14T15:20:29.680Z,90.67
2022-09-14T15:22:57.108Z,90.34
2022-09-14T15:25:24.145Z,90.97
2022-09-14T15:27:51.303Z,91.04
2022-09-14T15:30:18.410Z,90.88
2022-09-14T15:32:45.504Z,90.60
2022-09-14T15:35:14.121Z,90.75
2022-09-14T15:37:41.696Z,90.69
2022-09-14T15:40:09.857Z,90.59
2022-09-14T15:42:36.984Z,90.59
2022-09-14T15:45:05.277Z,90.72
2022-09-14T15:47:36.249Z,90.67
2022-09-14T15:50:04.687Z,90.68
2022-09-14T15:52:35.125Z,90.71
2022-09-14T15:55:02.350Z,91.25
2022-09-14T15:57:29.517Z,91.30
2022-09-14T15:59:56.567Z,91.51
2022-09-14T16:02:23.675Z,91.51
2022-09-14T16:04:50.832Z,91.73
2022-09-14T16:07:17.933Z,91.45
2022-09-14T16:09:45.733Z,91.16
2022-09-14T16:12:12.998Z,91.11
2022-09-14T16:14:40.019Z,91.16
2022-09-14T16:17:08.531Z,91.38
2022-09-14T16:19:35.784Z,91.29
2022-09-14T16:22:03.517Z,91.45
2022-09-14T16:24:31.137Z,91.24
2022-09-14T16:26:58.250Z,91.62
2022-09-14T16:29:25.812Z,91.64
2022-09-14T16:31:53.886Z,92.01
2022-09-14T16:34:28.073Z,91.66
2022-09-14T16:36:59.992Z,91.37
2022-09-14T16:39:29.363Z,91.48
2022-09-14T16:41:56.899Z,91.84
2022-09-14T16:44:25.952Z,91.54
2022-09-14T16:46:54.520Z,91.52
2022-09-14T16:49:27.007Z,91.57
2022-09-14T16:51:55.381Z,91.58
2022-09-14T16:54:23.646Z,91.27
2022-09-14T16:56:50.778Z,91.32
2022-09-14T16:59:19.346Z,91.57
2022-09-14T17:01:50.860Z,91.78
2022-09-14T17:04:22.070Z,91.77
2022-09-14T17:06:50.764Z,91.95
2022-09-14T17:09:20.467Z,92.07
2022-09-14T17:11:48.472Z,92.04
2022-09-14T17:14:17.893Z,92.14
2022-09-14T17:16:45.285Z,92.05
2022-09-14T17:19:12.792Z,92.13
2022-09-14T17:21:42.088Z,92.12
2022-09-14T17:24:09.714Z,91.81
2022-09-14T17:26:36.890Z,92.28
2022-09-14T17:29:05.062Z,91.91
2022-09-14T17:31:34.693Z,91.67
2022-09-14T17:34:03.205Z,91.75
2022-09-14T17:36:30.491Z,91.69
2022-09-14T17:38:59.303Z,92.13
2022-09-14T17:41:31.519Z,91.82
2022-09-14T17:44:02.997Z,91.92
2022-09-14T17:46:30.336Z,91.92
2022-09-14T17:48:59.062Z,92.01
2022-09-14T17:51:28.365Z,91.93
2022-09-14T17:53:56.942Z,91.73
2022-09-14T17:56:25.848Z,91.52
2022-09-14T17:59:05.462Z,91.56
2022-09-14T18:01:32.867Z,91.50
2022-09-14T18:04:04.046Z,91.51
2022-09-14T18:06:34.670Z,91.01
2022-09-14T18:09:10.891Z,91.35
2022-09-14T18:11:38.533Z,91.41
2022-09-14T18:14:06.274Z,91.32
2022-09-14T18:16:34.033Z,91.94
2022-09-14T18:19:01.526Z,91.86
2022-09-14T18:21:28.568Z,91.74
2022-09-14T18:23:55.839Z,91.53
2022-09-14T18:26:24.343Z,91.45
2022-09-14T18:28:53.768Z,91.31
2022-09-14T18:31:20.871Z,91.24
2022-09-14T18:33:50.298Z,91.12
2022-09-14T18:36:18.150Z,91.25
2022-09-14T18:38:45.554Z,91.35
2022-09-14T18:41:13.099Z,91.52
2022-09-14T18:43:45.006Z,91.67
2022-09-14T18:46:13.506Z,91.70
2022-09-14T18:48:43.516Z,91.78
2022-09-14T18:51:12.210Z,91.26
2022-09-14T18:53:40.082Z,91.42
2022-09-14T18:56:09.539Z,91.51
2022-09-14T18:58:38.485Z,91.32
2022-09-14T19:01:06.367Z,91.77
2022-09-14T19:03:34.372Z,91.70
2022-09-14T19:06:09.659Z,91.51
2022-09-14T19:08:37.132Z,92.07
2022-09-14T19:11:13.626Z,92.46
2022-09-14T19:13:41.065Z,92.57
2022-09-14T19:16:09.708Z,92.51
2022-09-14T19:18:37.295Z,92.67
2022-09-14T19:21:09.091Z,93.12
2022-09-14T19:23:36.741Z,93.30
2022-09-14T19:26:12.581Z,93.50
2022-09-14T19:28:39.721Z,93.48
2022-09-14T19:31:12.151Z,93.78
2022-09-14T19:33:45.113Z,93.33
2022-09-14T19:36:22.378Z,93.61
2022-09-14T19:38:51.213Z,93.52
2022-09-14T19:41:19.246Z,94.30
2022-09-14T19:46:16.312Z,93.81
2022-09-14T19:48:43.914Z,93.82
2022-09-14T19:51:14.407Z,93.77
2022-09-14T19:53:42.424Z,94.47
2022-09-14T19:56:12.971Z,94.75
2022-09-14T19:58:42.286Z,94.31
2022-09-14T20:01:10.136Z,94.03
2022-09-14T20:03:38.885Z,93.85
2022-09-14T20:06:08.443Z,93.87
2022-09-14T20:08:36.050Z,94.19
2022-09-14T20:11:07.380Z,94.30
2022-09-14T20:13:35.504Z,94.69
2022-09-14T20:16:17.969Z,94.25
2022-09-14T20:18:45.814Z,94.44
2022-09-14T20:21:18.285Z,94.48
2022-09-14T20:24:11.553Z,94.48
2022-09-14T20:26:33.718Z,94.58
2022-09-14T20:29:01.331Z,94.94
2022-09-14T20:31:29.744Z,95.01
2022-09-14T20:33:57.410Z,94.70
2022-09-14T20:36:28.638Z,95.12
2022-09-14T20:38:57.322Z,95.09
2022-09-14T20:41:29.417Z,95.05
2022-09-14T20:43:57.121Z,94.96
2022-09-14T20:46:26.889Z,95.04
2022-09-14T20:48:54.294Z,95.11
2022-09-14T20:51:22.753Z,94.85
2022-09-14T20:53:49.858Z,94.80
2022-09-14T20:56:20.324Z,94.90
2022-09-14T20:58:48.360Z,94.89
2022-09-14T21:01:17.573Z,94.85
2022-09-14T21:03:47.077Z,94.95
2022-09-14T21:06:17.272Z,94.76
2022-09-14T21:08:45.094Z,95.05
2022-09-14T21:11:23.375Z,94.99
2022-09-14T21:13:52.421Z,95.01
2022-09-14T21:16:22.303Z,94.96
2022-09-14T21:18:57.307Z,95.02
2022-09-14T21:21:24.517Z,95.28
2022-09-14T21:23:52.916Z,95.42
2022-09-14T21:26:20.224Z,95.49
2022-09-14T21:28:47.784Z,95.43
2022-09-14T21:31:21.455Z,95.76
2022-09-14T21:33:51.770Z,95.55
2022-09-14T21:36:22.570Z,95.13
2022-09-14T21:38:54.163Z,95.21
2022-09-14T21:41:23.348Z,95.04
2022-09-14T21:43:50.903Z,95.01
2022-09-14T21:46:18.573Z,95.46
2022-09-14T21:48:45.882Z,95.84
2022-09-14T21:51:17.908Z,95.98
2022-09-14T21:53:49.660Z,95.45
2022-09-14T21:56:17.867Z,95.48
2022-09-14T21:58:49.800Z,95.29
2022-09-14T22:01:17.318Z,94.70
2022-09-14T22:03:45.157Z,94.64
2022-09-14T22:06:13.203Z,94.72
2022-09-14T22:08:40.421Z,95.02
2022-09-14T22:11:11.090Z,95.11
2022-09-14T22:13:38.836Z,95.04
2022-09-14T22:16:14.413Z,94.98
2022-09-14T22:18:47.213Z,94.80
2022-09-14T22:21:14.694Z,94.54
2022-09-14T22:23:41.767Z,94.63
2022-09-14T22:26:11.772Z,94.82
2022-09-14T22:28:40.767Z,94.90
2022-09-14T22:31:08.516Z,95.01
2022-09-14T22:33:35.900Z,94.96
2022-09-14T22:36:03.972Z,95.11
2022-09-14T22:38:32.805Z,94.90
2022-09-14T22:41:02.426Z,94.38
2022-09-14T22:43:30.180Z,94.94
2022-09-14T22:45:57.952Z,94.89
2022-09-14T22:48:25.269Z,94.85
2022-09-14T22:50:53.917Z,94.84
2022-09-14T22:53:22.735Z,94.89
2022-09-14T22:55:50.115Z,95.17
2022-09-14T22:58:19.311Z,94.57
2022-09-14T23:00:46.800Z,94.84
2022-09-14T23:03:16.041Z,94.81
2022-09-14T23:05:55.650Z,95.12
2022-09-14T23:08:23.263Z,95.10
2022-09-14T23:10:50.587Z,94.91
2022-09-14T23:13:17.667Z,94.76
2022-09-14T23:15:45.518Z,94.44
2022-09-14T23:18:13.126Z,94.74
2022-09-14T23:20:42.598Z,95.05
2022-09-14T23:23:10.814Z,94.50
2022-09-14T23:25:40.148Z,94.65
2022-09-14T23:28:09.416Z,94.51
2022-09-14T23:30:36.545Z,94.71
2022-09-14T23:33:03.913Z,94.66
2022-09-14T23:35:32.876Z,95.15
2022-09-14T23:38:02.846Z,94.85
2022-09-14T23:40:29.994Z,94.55
2022-09-14T23:42:57.190Z,94.54
2022-09-14T23:45:24.264Z,94.91
2022-09-14T23:47:51.341Z,95.24
2022-09-14T23:50:18.906Z,94.96
2022-09-14T23:52:47.189Z,95.23
2022-09-14T23:55:14.422Z,95.00
2022-09-14T23:57:41.509Z,94.85
